Time;durP1;ratioP1;P1;durP2;ratioP2;P2;SDS_P1;SDS_P2;PMS_P1;PMS_P2;Temp;Humidity;BMP_temperature;BMP_pressure;BME280_temperature;BME280_humidity;BME280_pressure;Samples;Min_cycle;Max_cycle;Signal;HPM_P1;HPM_P2
2022/01/24 00:02:01;;;;;;;9.88;7.93;;;8.50;69.30;;;;;;5065260;28;20044;-51
2022/01/24 00:04:28;;;;;;;9.32;8.05;;;8.40;69.20;;;;;;5053469;28;20071;-49
2022/01/24 00:06:55;;;;;;;11.32;8.57;;;8.40;69.20;;;;;;5046515;28;20037;-50
2022/01/24 00:09:21;;;;;;;10.68;8.77;;;8.30;69.20;;;;;;5044408;28;20049;-50
2022/01/24 00:12:02;;;;;;;10.07;8.00;;;8.30;69.30;;;;;;5056640;28;20680;-51
2022/01/24 00:14:52;;;;;;;10.38;7.93;;;8.20;69.30;;;;;;5053684;28;20048;-51
2022/01/24 00:17:30;;;;;;;11.15;8.15;;;8.20;69.40;;;;;;5028410;28;20053;-48
2022/01/24 00:28:13;;;;;;;12.90;9.20;;;8.10;70.10;;;;;;5048295;28;20462;-51
2022/01/24 00:30:40;;;;;;;10.90;8.27;;;8.10;70.20;;;;;;5055313;28;20182;-49
2022/01/24 00:33:08;;;;;;;10.05;7.95;;;8.10;70.20;;;;;;5056611;28;20049;-49
2022/01/24 00:35:35;;;;;;;11.95;9.07;;;8.10;70.30;;;;;;5065770;28;20895;-49
2022/01/24 00:38:02;;;;;;;12.57;9.60;;;8.10;70.20;;;;;;5052143;28;20041;-47
2022/01/24 00:40:35;;;;;;;12.95;9.23;;;8.10;70.20;;;;;;5045267;28;20091;-51
2022/01/24 00:43:04;;;;;;;;;;;8.10;70.30;;;;;;5043618;28;20082;-48
2022/01/24 00:45:38;;;;;;;12.63;9.05;;;8.10;70.10;;;;;;5049761;28;19982;-50
2022/01/24 00:48:23;;;;;;;10.30;8.80;;;8.10;70.00;;;;;;5049833;28;20071;-51
2022/01/24 00:53:59;;;;;;;11.45;9.27;;;8.10;69.90;;;;;;5059760;28;20045;-50
2022/01/24 00:56:25;;;;;;;10.98;8.10;;;8.10;69.80;;;;;;5064147;28;20642;-50
2022/01/24 00:58:52;;;;;;;12.48;9.05;;;8.00;69.70;;;;;;5049355;28;20049;-48
2022/01/24 01:01:20;;;;;;;12.45;9.77;;;8.00;70.30;;;;;;5063811;28;20051;-48
2022/01/24 01:03:47;;;;;;;14.07;9.82;;;8.00;69.50;;;;;;5068174;28;20136;-48
2022/01/24 01:06:16;;;;;;;14.10;9.75;;;7.90;69.50;;;;;;5049494;28;20178;-47
2022/01/24 01:20:05;;;;;;;10.02;7.60;;;7.60;68.60;;;;;;4960040;28;20091;-46
2022/01/24 01:22:32;;;;;;;10.43;8.05;;;7.50;68.50;;;;;;5014327;28;20061;-48
2022/01/24 01:24:59;;;;;;;9.50;7.90;;;7.40;68.40;;;;;;5058885;28;20067;-50
2022/01/24 01:27:34;;;;;;;11.57;8.15;;;7.30;68.30;;;;;;5061373;28;20048;-51
2022/01/24 01:30:07;;;;;;;9.50;7.82;;;7.20;68.20;;;;;;5052881;28;20040;-50
2022/01/24 01:35:33;;;;;;;8.93;7.03;;;7.00;68.10;;;;;;5061706;28;20694;-51
2022/01/24 01:57:13;;;;;;;9.85;7.40;;;6.20;68.50;;;;;;5053121;28;20112;-51
2022/01/24 01:59:40;;;;;;;9.50;6.57;;;6.10;68.50;;;;;;5033845;28;20122;-51
2022/01/24 02:02:10;;;;;;;9.85;7.47;;;6.00;68.70;;;;;;5039022;28;20581;-50
2022/01/24 02:04:39;;;;;;;11.50;7.35;;;5.90;68.70;;;;;;5053410;28;20115;-48
2022/01/24 02:07:10;;;;;;;9.10;6.90;;;5.90;68.80;;;;;;5050572;28;20489;-51
2022/01/24 02:09:40;;;;;;;11.30;7.07;;;5.80;68.80;;;;;;5058919;28;20463;-51
2022/01/24 02:12:08;;;;;;;9.88;7.25;;;5.70;68.90;;;;;;5061663;28;20056;-51
2022/01/24 02:14:39;;;;;;;12.73;7.97;;;5.60;69.00;;;;;;5061214;28;20053;-50
2022/01/24 02:17:09;;;;;;;11.13;7.83;;;5.60;69.10;;;;;;5057699;28;20353;-49
2022/01/24 02:20:11;;;;;;;10.32;6.93;;;5.50;69.10;;;;;;5068448;28;20563;-48
2022/01/24 02:22:48;;;;;;;8.48;6.55;;;5.50;69.20;;;;;;5062781;28;20713;-49
2022/01/24 02:25:29;;;;;;;8.75;6.28;;;5.40;69.20;;;;;;5059919;28;20518;-49
2022/01/24 02:28:00;;;;;;;10.90;6.57;;;5.40;69.30;;;;;;5030508;28;20038;-48
2022/01/24 02:32:56;;;;;;;9.07;6.40;;;5.30;69.30;;;;;;5056885;28;20048;-51
2022/01/24 02:35:23;;;;;;;11.45;6.45;;;5.20;69.30;;;;;;5058348;28;20515;-50
2022/01/24 02:37:50;;;;;;;10.20;6.03;;;5.20;69.40;;;;;;5069041;28;20040;-47
2022/01/24 02:40:19;;;;;;;8.45;6.10;;;5.10;69.50;;;;;;5065432;28;20033;-50
2022/01/24 02:48:24;;;;;;;9.25;6.20;;;5.00;69.50;;;;;;5056920;28;20475;-49
2022/01/24 02:53:41;;;;;;;9.20;6.03;;;5.00;69.60;;;;;;5068616;28;20496;-48
2022/01/24 02:56:08;;;;;;;10.13;6.00;;;4.90;69.60;;;;;;5068271;28;20098;-48
2022/01/24 02:58:39;;;;;;;10.55;6.88;;;4.90;69.60;;;;;;5061940;28;20119;-51
2022/01/24 03:01:07;;;;;;;9.30;5.97;;;4.80;69.60;;;;;;5057035;28;20070;-50
2022/01/24 03:03:36;;;;;;;10.10;6.68;;;4.80;69.70;;;;;;5059274;28;20041;-47
2022/01/24 03:06:05;;;;;;;7.80;6.22;;;4.80;69.70;;;;;;5054447;28;20648;-50
2022/01/24 03:08:33;;;;;;;7.07;5.28;;;4.70;69.70;;;;;;5062471;28;20036;-48
2022/01/24 03:11:00;;;;;;;10.30;6.18;;;4.70;69.80;;;;;;5061302;28;20438;-50
2022/01/24 03:15:55;;;;;;;7.72;5.85;;;4.70;69.90;;;;;;5063239;28;20094;-47
2022/01/24 03:18:25;;;;;;;9.10;5.95;;;4.60;69.90;;;;;;5057291;28;20048;-51
2022/01/24 03:20:52;;;;;;;9.30;6.53;;;4.60;70.00;;;;;;5061071;28;20055;-49
2022/01/24 03:23:21;;;;;;;10.85;6.80;;;4.60;70.00;;;;;;5058737;28;20145;-51
2022/01/24 03:25:48;;;;;;;10.07;6.93;;;4.60;70.70;;;;;;5052944;28;20074;-51
2022/01/24 03:28:21;;;;;;;11.57;7.88;;;4.50;70.00;;;;;;5061270;28;20508;-49
2022/01/24 03:30:48;;;;;;;10.30;5.95;;;4.50;69.90;;;;;;5069680;28;20540;-50
2022/01/24 03:33:15;;;;;;;10.90;6.50;;;4.50;70.00;;;;;;5063970;28;20056;-51
2022/01/24 03:35:43;;;;;;;9.57;6.38;;;4.50;70.00;;;;;;5062417;28;20075;-47
2022/01/24 03:38:12;;;;;;;9.18;6.53;;;4.50;70.00;;;;;;5061879;28;20056;-47
2022/01/24 03:40:40;;;;;;;9.02;6.30;;;4.50;70.10;;;;;;5059228;28;20527;-48
2022/01/24 03:43:08;;;;;;;8.35;5.95;;;4.40;70.10;;;;;;5069765;28;20040;-50
2022/01/24 03:48:09;;;;;;;8.93;6.47;;;4.40;70.10;;;;;;5048358;28;20175;-47
2022/01/24 03:50:36;;;;;;;10.00;5.65;;;4.40;70.20;;;;;;5060610;28;20105;-50
2022/01/24 03:53:04;;;;;;;7.72;5.32;;;4.30;70.10;;;;;;5050701;28;20049;-51
2022/01/24 03:55:33;;;;;;;7.65;5.93;;;4.40;70.10;;;;;;5041114;28;20051;-50
2022/01/24 03:58:01;;;;;;;9.35;6.90;;;4.30;70.00;;;;;;5060451;28;20062;-50
2022/01/24 04:00:29;;;;;;;9.02;6.25;;;4.30;70.10;;;;;;5060522;28;20044;-48
2022/01/24 04:02:56;;;;;;;9.15;6.25;;;4.30;70.00;;;;;;5068228;28;20076;-48
2022/01/24 04:05:23;;;;;;;9.80;6.15;;;4.30;70.20;;;;;;5053906;28;20049;-50
2022/01/24 04:07:50;;;;;;;9.63;6.50;;;4.20;70.10;;;;;;5051562;28;20469;-50
2022/01/24 04:10:19;;;;;;;8.57;5.85;;;4.20;70.00;;;;;;5053483;28;20033;-47
2022/01/24 04:12:51;;;;;;;7.65;5.88;;;4.20;70.00;;;;;;5056511;28;20048;-48
2022/01/24 04:15:57;;;;;;;8.18;5.50;;;4.20;70.00;;;;;;5053421;28;20056;-49
2022/01/24 04:21:25;;;;;;;8.05;5.38;;;4.10;70.00;;;;;;5046376;22;20446;-50
2022/01/24 04:24:07;;;;;;;9.40;5.25;;;4.10;70.00;;;;;;5049724;28;20045;-49
2022/01/24 04:26:34;;;;;;;7.88;5.18;;;4.10;70.00;;;;;;5065458;28;20512;-49
2022/01/24 04:29:02;;;;;;;8.02;5.40;;;4.10;70.10;;;;;;5059689;28;20072;-49
2022/01/24 04:31:29;;;;;;;9.55;5.35;;;4.10;70.20;;;;;;5068582;28;20106;-48
2022/01/24 04:33:57;;;;;;;11.35;6.05;;;4.00;70.10;;;;;;5065093;28;20045;-50
2022/01/24 04:36:25;;;;;;;10.73;5.90;;;4.10;70.20;;;;;;5059776;28;20044;-49
2022/01/24 04:38:52;;;;;;;10.77;6.07;;;4.00;70.20;;;;;;5059743;28;20049;-48
2022/01/24 04:41:24;;;;;;;9.27;5.75;;;4.00;70.20;;;;;;5063553;28;20048;-49
2022/01/24 04:44:03;;;;;;;7.45;4.70;;;4.00;70.10;;;;;;5061748;28;20045;-50
2022/01/24 04:46:47;;;;;;;8.07;5.45;;;4.00;70.10;;;;;;5064878;28;20083;-49
2022/01/24 04:54:47;;;;;;;9.35;5.97;;;3.90;70.00;;;;;;5061220;28;20045;-49
2022/01/24 04:57:22;;;;;;;8.82;5.82;;;3.90;70.00;;;;;;5062881;28;20048;-48
2022/01/24 04:59:53;;;;;;;9.18;6.00;;;3.90;70.10;;;;;;5069564;28;20052;-50
2022/01/24 05:02:21;;;;;;;8.30;5.57;;;3.80;70.10;;;;;;5066998;28;20037;-51
2022/01/24 05:04:49;;;;;;;9.88;6.35;;;3.80;70.10;;;;;;5060346;28;20048;-49
2022/01/24 05:07:16;;;;;;;8.45;6.07;;;3.80;70.20;;;;;;5060273;28;20045;-50
2022/01/24 05:09:49;;;;;;;11.73;7.22;;;3.80;70.20;;;;;;5041123;28;20045;-49
2022/01/24 05:12:31;;;;;;;8.80;5.95;;;3.80;70.20;;;;;;5062244;28;20040;-50
2022/01/24 05:26:01;;;;;;;9.77;6.60;;;3.70;70.10;;;;;;5035728;28;20448;-49
2022/01/24 05:28:29;;;;;;;9.10;6.10;;;3.70;70.10;;;;;;5052777;28;20800;-50
2022/01/24 05:30:58;;;;;;;12.05;6.95;;;3.70;70.10;;;;;;5048196;28;20029;-51
2022/01/24 05:33:26;;;;;;;10.65;6.45;;;3.60;70.10;;;;;;5059329;28;20047;-50
2022/01/24 05:35:54;;;;;;;8.82;5.50;;;3.60;70.10;;;;;;5052303;28;20049;-50
2022/01/24 05:38:22;;;;;;;9.30;6.43;;;3.60;70.20;;;;;;5051746;28;20123;-49
2022/01/24 05:40:50;;;;;;;8.90;6.30;;;3.60;71.00;;;;;;5053241;28;20052;-49
2022/01/24 05:43:16;;;;;;;9.82;6.78;;;3.60;70.30;;;;;;5054001;28;20508;-50
2022/01/24 05:45:43;;;;;;;9.52;6.45;;;3.60;70.30;;;;;;5050105;28;20472;-50
2022/01/24 05:48:10;;;;;;;10.45;6.75;;;3.60;70.40;;;;;;5039966;28;20037;-49
2022/01/24 05:50:36;;;;;;;10.80;6.85;;;3.60;70.40;;;;;;5062089;28;20516;-51
2022/01/24 05:53:03;;;;;;;10.60;6.15;;;3.60;70.40;;;;;;5062899;28;20098;-51
2022/01/24 05:55:31;;;;;;;10.82;6.10;;;3.60;70.40;;;;;;5070999;28;20087;-52
2022/01/24 05:57:59;;;;;;;11.55;6.90;;;3.60;70.30;;;;;;5065576;28;20415;-51
2022/01/24 06:00:26;;;;;;;9.85;5.88;;;3.60;70.30;;;;;;5043706;28;20447;-50
2022/01/24 06:02:53;;;;;;;9.10;6.18;;;3.50;70.30;;;;;;5062012;28;20120;-50
2022/01/24 06:05:20;;;;;;;9.95;6.40;;;3.50;70.40;;;;;;5062460;28;20111;-51
2022/01/24 06:07:49;;;;;;;11.50;6.57;;;3.50;70.50;;;;;;5049944;28;20044;-49
2022/01/24 06:10:16;;;;;;;9.60;6.75;;;3.50;70.60;;;;;;5043840;28;20397;-53
2022/01/24 06:12:44;;;;;;;10.95;6.63;;;3.60;70.80;;;;;;5023891;28;20095;-49
2022/01/24 06:15:13;;;;;;;11.30;7.20;;;3.60;70.90;;;;;;5039779;28;20091;-52
2022/01/24 06:17:40;;;;;;;11.60;6.82;;;3.60;71.00;;;;;;5051469;28;20083;-53
2022/01/24 06:20:07;;;;;;;10.55;6.93;;;3.60;71.10;;;;;;5058552;28;20616;-50
2022/01/24 06:22:38;;;;;;;12.18;7.40;;;3.60;71.20;;;;;;5067860;28;20450;-50
2022/01/24 06:25:07;;;;;;;10.35;6.45;;;3.70;71.40;;;;;;5058620;28;20079;-49
2022/01/24 06:27:42;;;;;;;13.27;7.35;;;3.70;71.50;;;;;;5059663;28;20504;-50
2022/01/24 06:30:10;;;;;;;11.13;6.55;;;3.80;71.60;;;;;;5061747;28;20526;-50
2022/01/24 06:32:38;;;;;;;11.77;6.63;;;3.80;71.60;;;;;;5070754;28;20099;-50
2022/01/24 06:35:07;;;;;;;8.68;6.68;;;3.80;71.70;;;;;;5047605;28;20164;-50
2022/01/24 06:37:34;;;;;;;11.43;7.05;;;3.90;71.70;;;;;;5043470;28;20069;-52
2022/01/24 06:40:01;;;;;;;11.80;6.60;;;3.90;71.70;;;;;;5044844;28;20104;-52
2022/01/24 06:42:28;;;;;;;10.18;6.97;;;3.90;71.60;;;;;;5033820;28;20068;-51
2022/01/24 06:44:56;;;;;;;10.25;6.75;;;4.00;71.60;;;;;;5031813;28;20060;-51
2022/01/24 06:47:23;;;;;;;11.02;6.70;;;4.00;71.50;;;;;;5058142;28;20037;-52
2022/01/24 06:49:54;;;;;;;9.75;7.20;;;4.00;71.50;;;;;;5058102;28;20504;-53
2022/01/24 06:52:20;;;;;;;11.48;7.07;;;4.10;71.50;;;;;;5038149;28;20054;-53
2022/01/24 06:54:47;;;;;;;10.70;6.57;;;4.10;71.40;;;;;;5053069;28;20084;-54
2022/01/24 06:57:15;;;;;;;10.30;7.25;;;4.10;71.30;;;;;;5048587;28;20041;-51
2022/01/24 06:59:44;;;;;;;10.30;7.35;;;4.10;71.20;;;;;;5066255;28;20542;-52
2022/01/24 07:02:12;;;;;;;10.30;7.18;;;4.20;71.20;;;;;;5061134;28;20053;-53
2022/01/24 07:04:41;;;;;;;14.38;7.63;;;4.20;71.20;;;;;;5052113;28;20079;-53
2022/01/24 07:07:10;;;;;;;11.75;7.35;;;4.20;71.10;;;;;;5047763;28;20037;-52
2022/01/24 07:09:38;;;;;;;12.07;8.20;;;4.20;71.00;;;;;;5064857;28;20044;-54
2022/01/24 07:12:06;;;;;;;10.68;7.35;;;4.20;70.80;;;;;;5060055;28;20044;-52
2022/01/24 07:14:33;;;;;;;10.80;6.43;;;4.20;70.70;;;;;;5060908;28;20048;-53
2022/01/24 07:17:08;;;;;;;11.10;7.53;;;4.20;70.60;;;;;;5052708;28;20060;-53
2022/01/24 07:19:34;;;;;;;10.43;7.15;;;4.20;70.50;;;;;;5041661;28;20456;-55
2022/01/24 07:22:04;;;;;;;12.30;6.88;;;4.10;70.40;;;;;;5050036;28;20044;-53
2022/01/24 07:24:31;;;;;;;12.02;7.45;;;4.10;70.30;;;;;;5056187;28;20073;-53
2022/01/24 07:26:59;;;;;;;10.18;7.20;;;4.00;70.80;;;;;;5058915;28;20037;-54
2022/01/24 07:29:26;;;;;;;11.13;7.43;;;4.00;70.20;;;;;;5041390;28;20045;-54
2022/01/24 07:31:52;;;;;;;9.98;6.68;;;4.00;70.30;;;;;;5060530;28;20068;-54
2022/01/24 07:34:19;;;;;;;9.40;6.47;;;4.00;70.40;;;;;;5052976;28;20102;-52
2022/01/24 07:36:46;;;;;;;12.77;7.93;;;3.90;70.40;;;;;;5061293;28;20060;-53
2022/01/24 07:39:13;;;;;;;11.43;7.43;;;3.90;70.40;;;;;;5056301;28;20091;-53
2022/01/24 07:41:47;;;;;;;9.50;7.00;;;4.00;70.40;;;;;;5054950;28;20401;-55
2022/01/24 07:44:20;;;;;;;10.68;7.00;;;3.80;70.40;;;;;;5057882;28;20041;-53
2022/01/24 07:46:47;;;;;;;8.90;6.97;;;3.80;70.50;;;;;;5068019;28;20044;-54
2022/01/24 07:49:14;;;;;;;13.02;6.63;;;3.80;70.40;;;;;;5062046;28;20044;-53
2022/01/24 07:51:41;;;;;;;10.32;6.47;;;3.80;70.40;;;;;;5052145;28;20037;-54
2022/01/24 07:54:09;;;;;;;11.85;7.20;;;3.70;70.40;;;;;;5059663;28;20068;-51
2022/01/24 07:56:36;;;;;;;9.48;6.78;;;3.70;70.40;;;;;;5068674;28;20072;-55
2022/01/24 07:59:03;;;;;;;12.27;7.28;;;3.70;70.40;;;;;;5056213;28;20064;-50
2022/01/24 08:01:31;;;;;;;9.07;6.68;;;3.70;70.40;;;;;;5055485;28;20045;-54
2022/01/24 08:03:58;;;;;;;11.68;6.88;;;3.70;70.50;;;;;;5059012;28;20094;-53
2022/01/24 08:06:24;;;;;;;11.02;7.50;;;3.60;70.50;;;;;;5057049;28;20090;-54
2022/01/24 08:08:51;;;;;;;10.70;6.50;;;3.60;70.60;;;;;;5054427;28;20044;-53
2022/01/24 08:11:19;;;;;;;10.00;6.00;;;3.60;70.70;;;;;;5056675;28;20056;-54
2022/01/24 08:13:47;;;;;;;13.68;7.07;;;3.60;70.70;;;;;;5066813;28;20130;-54
2022/01/24 08:16:14;;;;;;;10.75;6.47;;;3.60;70.80;;;;;;5053372;28;20052;-51
2022/01/24 08:18:41;;;;;;;9.55;6.13;;;3.60;70.80;;;;;;5036765;28;20052;-54
2022/01/24 08:21:08;;;;;;;13.05;6.95;;;3.60;70.90;;;;;;5059825;28;20052;-51
2022/01/24 08:23:35;;;;;;;9.88;6.90;;;3.60;70.90;;;;;;5054459;28;20095;-51
2022/01/24 08:26:03;;;;;;;11.20;7.15;;;3.60;70.90;;;;;;5047421;28;20047;-54
2022/01/24 08:28:30;;;;;;;12.75;7.57;;;3.70;71.00;;;;;;5025928;28;20057;-53
2022/01/24 08:30:57;;;;;;;10.80;6.10;;;3.60;70.90;;;;;;5052315;28;20037;-51
2022/01/24 08:33:24;;;;;;;11.20;7.45;;;3.70;71.00;;;;;;5062646;28;20048;-53
2022/01/24 08:35:51;;;;;;;13.50;7.22;;;3.70;71.00;;;;;;5037155;28;20053;-50
2022/01/24 08:38:20;;;;;;;9.27;6.90;;;3.80;71.20;;;;;;5060823;28;20036;-54
2022/01/24 08:40:50;;;;;;;9.63;6.57;;;3.70;71.20;;;;;;5057367;28;20049;-54
2022/01/24 08:43:35;;;;;;;11.68;7.07;;;3.70;71.20;;;;;;5066412;28;20095;-53
2022/01/24 08:46:02;;;;;;;10.48;7.10;;;3.70;71.20;;;;;;5057208;28;20466;-54
2022/01/24 08:48:34;;;;;;;12.63;6.97;;;3.70;71.20;;;;;;5055376;28;20139;-54
2022/01/24 08:51:00;;;;;;;14.45;9.55;;;3.70;71.20;;;;;;5056750;28;20496;-53
2022/01/24 08:53:33;;;;;;;13.13;9.43;;;3.80;71.30;;;;;;5052466;28;20555;-51
2022/01/24 08:56:05;;;;;;;14.82;9.55;;;3.80;71.40;;;;;;5052246;28;20040;-54
2022/01/24 08:58:34;;;;;;;12.80;9.70;;;3.80;72.00;;;;;;5060408;28;20118;-55
2022/01/24 09:01:01;;;;;;;12.55;8.40;;;3.80;71.50;;;;;;5059936;28;20048;-52
2022/01/24 09:03:29;;;;;;;14.98;10.20;;;3.80;71.50;;;;;;5051574;28;20048;-54
2022/01/24 09:05:59;;;;;;;11.02;7.28;;;3.90;71.60;;;;;;5048732;28;20037;-54
2022/01/24 09:08:26;;;;;;;14.55;9.13;;;3.90;71.60;;;;;;5044788;28;20582;-54
2022/01/24 09:10:53;;;;;;;14.90;9.10;;;3.90;71.60;;;;;;5034880;28;20420;-54
2022/01/24 09:13:21;;;;;;;13.15;8.63;;;3.90;71.70;;;;;;5039948;28;20049;-54
2022/01/24 09:15:49;;;;;;;13.75;9.05;;;4.00;71.80;;;;;;5035811;28;20120;-54
2022/01/24 09:18:18;;;;;;;12.57;8.00;;;4.00;71.80;;;;;;5035830;28;20037;-54
2022/01/24 09:20:48;;;;;;;16.27;8.95;;;4.00;71.80;;;;;;5063833;28;20617;-55
2022/01/24 09:23:15;;;;;;;10.25;8.20;;;4.10;71.80;;;;;;5063851;28;20041;-54
2022/01/24 09:25:42;;;;;;;13.88;9.05;;;4.10;71.80;;;;;;5051983;28;20594;-54
2022/01/24 09:28:09;;;;;;;14.25;10.25;;;4.10;71.90;;;;;;5055691;28;20037;-51
2022/01/24 09:30:36;;;;;;;15.27;10.75;;;4.30;72.10;;;;;;5048152;28;20049;-53
2022/01/24 09:33:04;;;;;;;16.75;11.85;;;4.20;72.20;;;;;;5050859;28;20044;-52
2022/01/24 09:35:30;;;;;;;17.30;12.40;;;4.20;72.50;;;;;;5056097;28;20107;-54
2022/01/24 09:37:57;;;;;;;17.27;11.30;;;4.30;72.80;;;;;;5048253;28;20037;-51
2022/01/24 09:40:24;;;;;;;19.33;12.27;;;4.30;72.70;;;;;;5047071;28;20131;-52
2022/01/24 09:42:52;;;;;;;15.77;11.23;;;4.30;72.70;;;;;;5051451;28;20095;-55
2022/01/24 09:45:20;;;;;;;19.67;10.48;;;4.40;72.60;;;;;;5054935;28;20051;-53
2022/01/24 09:47:47;;;;;;;17.73;11.63;;;4.40;72.70;;;;;;5050991;28;20037;-55
2022/01/24 09:50:15;;;;;;;15.43;10.75;;;4.50;72.70;;;;;;5050158;28;20126;-54
2022/01/24 09:52:44;;;;;;;17.80;11.38;;;4.50;72.80;;;;;;5056500;28;20044;-55
2022/01/24 09:55:12;;;;;;;19.25;11.55;;;4.60;72.90;;;;;;5047113;28;20041;-54
2022/01/24 09:57:41;;;;;;;15.20;11.43;;;4.60;73.00;;;;;;5068458;28;20048;-54
2022/01/24 10:00:11;;;;;;;17.58;11.75;;;4.60;73.20;;;;;;5070076;28;20044;-51
2022/01/24 10:02:39;;;;;;;16.67;11.38;;;4.70;73.30;;;;;;5061463;28;20053;-50
2022/01/24 10:05:27;;;;;;;17.83;11.70;;;4.70;73.30;;;;;;5061074;28;20123;-52
2022/01/24 10:08:16;;;;;;;18.35;11.45;;;4.80;73.80;;;;;;5049484;28;20517;-53
2022/01/24 10:10:52;;;;;;;17.50;11.75;;;4.80;73.50;;;;;;5052783;28;20096;-52
2022/01/24 10:16:35;;;;;;;16.58;10.85;;;4.90;73.50;;;;;;5055605;28;20044;-54
2022/01/24 10:19:22;;;;;;;17.50;12.00;;;5.00;73.60;;;;;;5050697;28;20045;-53
2022/01/24 10:22:04;;;;;;;18.80;11.60;;;5.00;73.60;;;;;;5054505;28;20579;-51
2022/01/24 10:24:37;;;;;;;18.98;12.10;;;5.10;73.80;;;;;;5056923;28;20049;-50
2022/01/24 10:27:05;;;;;;;19.73;12.48;;;5.10;73.80;;;;;;5058237;28;20503;-54
2022/01/24 10:29:32;;;;;;;17.38;10.98;;;5.20;73.90;;;;;;5080375;22;20187;-49
2022/01/24 10:31:59;;;;;;;20.50;12.25;;;5.20;73.90;;;;;;5056367;28;20086;-52
2022/01/24 10:34:35;;;;;;;19.60;12.60;;;5.20;73.90;;;;;;5056725;28;20567;-49
2022/01/24 10:37:02;;;;;;;17.35;10.68;;;5.30;74.00;;;;;;5050580;28;20053;-49
2022/01/24 10:45:18;;;;;;;20.17;10.95;;;5.50;74.30;;;;;;5069094;28;20503;-51
2022/01/24 10:47:49;;;;;;;19.23;10.43;;;5.50;74.30;;;;;;5066031;28;20253;-49
2022/01/24 10:50:30;;;;;;;17.90;11.10;;;5.60;74.00;;;;;;5057070;28;20041;-48
2022/01/24 10:53:08;;;;;;;20.90;12.00;;;5.60;74.00;;;;;;5051549;28;20102;-48
2022/01/24 10:55:35;;;;;;;18.52;10.68;;;5.70;73.90;;;;;;5046389;28;20103;-50
2022/01/24 10:58:09;;;;;;;20.88;12.18;;;5.70;73.90;;;;;;5044653;28;20544;-51
2022/01/24 11:00:37;;;;;;;18.83;11.10;;;5.80;74.10;;;;;;5040852;28;20508;-52
2022/01/24 11:03:06;;;;;;;20.92;12.90;;;5.80;74.00;;;;;;5049615;28;20610;-52
2022/01/24 11:05:35;;;;;;;17.38;11.35;;;5.90;74.00;;;;;;5059515;28;20554;-54
2022/01/24 11:08:05;;;;;;;21.38;12.10;;;6.00;74.00;;;;;;5060311;28;20048;-51
2022/01/24 11:10:39;;;;;;;21.50;13.00;;;6.00;73.90;;;;;;5062249;28;20036;-51
2022/01/24 11:13:06;;;;;;;23.15;12.30;;;6.10;73.80;;;;;;5028779;28;20049;-51
2022/01/24 11:15:35;;;;;;;20.40;12.65;;;6.10;73.80;;;;;;5043700;28;20459;-51
2022/01/24 11:18:02;;;;;;;16.73;11.30;;;6.20;73.80;;;;;;5063995;28;20102;-53
2022/01/24 11:20:33;;;;;;;19.45;11.75;;;6.20;73.70;;;;;;5064872;28;20049;-53
2022/01/24 11:23:05;;;;;;;19.08;11.75;;;6.30;73.70;;;;;;5068248;28;20106;-53
2022/01/24 11:25:40;;;;;;;17.33;11.57;;;6.30;73.60;;;;;;5059247;28;20051;-54
2022/01/24 11:28:08;;;;;;;20.52;11.90;;;6.40;73.60;;;;;;5043884;28;20037;-53
2022/01/24 11:30:40;;;;;;;21.42;12.65;;;6.40;73.50;;;;;;5049253;28;20052;-53
2022/01/24 11:33:18;;;;;;;20.17;10.73;;;6.40;73.50;;;;;;5042070;28;20041;-54
2022/01/24 11:35:54;;;;;;;19.70;11.85;;;6.50;73.50;;;;;;5051760;28;20040;-55
2022/01/24 11:38:35;;;;;;;16.45;10.85;;;6.50;73.40;;;;;;5046643;28;20049;-54
2022/01/24 11:41:07;;;;;;;17.40;11.63;;;6.60;73.30;;;;;;5042159;28;20554;-55
2022/01/24 11:43:39;;;;;;;;;;;6.60;73.30;;;;;;5047307;28;20041;-55
2022/01/24 11:46:34;;;;;;;16.38;9.98;;;6.70;73.50;;;;;;5051464;28;19927;-55
2022/01/24 11:49:06;;;;;;;13.52;9.38;;;6.70;72.80;;;;;;5046847;28;20159;-54
2022/01/24 11:51:33;;;;;;;;;;;6.80;72.80;;;;;;5037891;28;20053;-53
2022/01/24 11:54:01;;;;;;;16.63;9.75;;;6.90;73.00;;;;;;5041152;28;19929;-53
2022/01/24 11:56:32;;;;;;;16.55;10.82;;;6.90;73.30;;;;;;5042913;28;20050;-54
2022/01/24 11:59:17;;;;;;;13.30;9.13;;;7.00;72.60;;;;;;5058090;28;20048;-55
2022/01/24 12:01:48;;;;;;;14.02;9.10;;;7.00;72.50;;;;;;5052467;28;20040;-54
2022/01/24 12:04:15;;;;;;;11.57;8.85;;;7.00;72.50;;;;;;5054708;28;20531;-53
2022/01/24 12:07:17;;;;;;;13.55;8.57;;;7.10;72.40;;;;;;5056950;28;20041;-54
2022/01/24 12:09:44;;;;;;;5.55;5.00;;;7.10;72.20;;;;;;5059589;28;20044;-54
2022/01/24 12:12:35;;;;;;;10.65;7.05;;;7.20;72.30;;;;;;5067874;28;20071;-55
2022/01/24 12:15:07;;;;;;;12.75;7.55;;;7.20;72.10;;;;;;5060947;28;20048;-55
2022/01/24 12:17:51;;;;;;;10.38;7.57;;;7.20;72.20;;;;;;5068302;28;20051;-54
2022/01/24 12:20:30;;;;;;;8.98;6.55;;;7.30;72.00;;;;;;5035551;28;20456;-54
2022/01/24 12:23:30;;;;;;;11.95;8.20;;;7.40;72.10;;;;;;5051686;28;20103;-55
2022/01/24 12:26:13;;;;;;;9.98;7.55;;;7.40;71.90;;;;;;5058203;28;20049;-54
2022/01/24 12:28:43;;;;;;;11.02;7.40;;;7.50;72.00;;;;;;5064320;28;20075;-53
2022/01/24 12:31:15;;;;;;;9.57;7.80;;;7.50;72.00;;;;;;5053276;28;20028;-53
2022/01/24 12:33:50;;;;;;;9.65;7.50;;;7.50;72.00;;;;;;5047412;28;20104;-55
2022/01/24 12:36:37;;;;;;;11.88;8.48;;;7.60;72.00;;;;;;5049322;28;20048;-53
2022/01/24 12:39:13;;;;;;;12.75;9.05;;;7.70;71.40;;;;;;5046687;28;20041;-55
2022/01/24 12:41:46;;;;;;;10.05;7.50;;;7.70;71.50;;;;;;5054829;28;20044;-53
2022/01/24 12:47:18;;;;;;;10.85;7.45;;;7.80;71.30;;;;;;5028103;28;20037;-55
2022/01/24 12:49:46;;;;;;;10.13;7.93;;;7.90;70.90;;;;;;5047112;28;20045;-55
2022/01/24 12:52:25;;;;;;;8.32;6.60;;;7.90;70.90;;;;;;5059791;28;20115;-53
2022/01/24 12:55:00;;;;;;;7.82;6.57;;;8.00;70.80;;;;;;5051130;28;20053;-53
2022/01/24 12:57:32;;;;;;;6.90;6.20;;;8.00;70.90;;;;;;5047860;28;20509;-52
2022/01/24 13:00:03;;;;;;;7.85;6.53;;;8.10;70.90;;;;;;5057433;28;20044;-54
2022/01/24 13:02:33;;;;;;;8.50;6.82;;;8.10;70.90;;;;;;5051543;28;20686;-52
2022/01/24 13:05:10;;;;;;;7.78;6.05;;;8.20;71.00;;;;;;5042019;28;20721;-55
2022/01/24 13:07:38;;;;;;;7.80;6.78;;;8.30;70.80;;;;;;5044020;28;20041;-52
2022/01/24 13:10:12;;;;;;;9.27;6.30;;;8.30;70.60;;;;;;5043675;28;20033;-53
2022/01/24 13:12:41;;;;;;;9.10;7.32;;;8.40;70.40;;;;;;5064558;28;20723;-55
2022/01/24 13:15:21;;;;;;;10.68;8.18;;;8.50;70.20;;;;;;5063581;28;20044;-54
2022/01/24 13:23:23;;;;;;;9.32;7.15;;;8.60;69.80;;;;;;5061983;28;20053;-55
2022/01/24 13:25:50;;;;;;;9.88;7.60;;;8.70;69.60;;;;;;5054276;28;20440;-54
2022/01/24 13:28:19;;;;;;;7.40;6.28;;;8.70;69.50;;;;;;5055852;28;20106;-55
2022/01/24 13:31:02;;;;;;;8.25;6.88;;;8.70;69.40;;;;;;5051580;28;20500;-53
2022/01/24 13:33:30;;;;;;;7.93;6.60;;;8.80;69.20;;;;;;5040511;28;20052;-53
2022/01/24 13:36:04;;;;;;;8.00;6.65;;;8.80;69.40;;;;;;5042083;28;20029;-55
2022/01/24 13:38:33;;;;;;;7.22;6.53;;;8.80;69.30;;;;;;5031627;28;20045;-55
2022/01/24 13:41:08;;;;;;;8.95;6.50;;;8.80;69.20;;;;;;5062803;28;20028;-54
2022/01/24 13:43:36;;;;;;;10.40;7.00;;;8.80;69.20;;;;;;5065163;28;20099;-54
2022/01/24 13:46:06;;;;;;;10.05;7.72;;;8.90;69.20;;;;;;5050552;28;20523;-53
2022/01/24 13:48:42;;;;;;;7.68;6.55;;;8.90;69.10;;;;;;5051807;28;20041;-52
2022/01/24 13:51:11;;;;;;;8.75;6.70;;;8.90;69.00;;;;;;5047403;28;20041;-53
2022/01/24 13:53:54;;;;;;;9.38;6.70;;;8.90;69.20;;;;;;5039461;28;20092;-55
2022/01/24 13:56:53;;;;;;;8.63;6.50;;;9.00;69.10;;;;;;5054196;28;20072;-54
2022/01/24 13:59:21;;;;;;;10.90;7.25;;;9.00;69.10;;;;;;5060499;28;20082;-55
2022/01/24 14:02:02;;;;;;;8.45;7.10;;;9.00;69.10;;;;;;5055704;28;20503;-55
2022/01/24 14:04:40;;;;;;;8.27;7.38;;;9.10;69.20;;;;;;5052251;28;20397;-51
2022/01/24 14:07:17;;;;;;;7.78;6.95;;;9.10;69.20;;;;;;5054218;28;20036;-53
2022/01/24 14:09:45;;;;;;;8.25;7.30;;;9.10;69.10;;;;;;5069754;28;20040;-55
2022/01/24 14:12:16;;;;;;;7.72;6.95;;;9.10;68.90;;;;;;5062955;28;20083;-55
2022/01/24 14:14:51;;;;;;;8.05;7.25;;;9.20;68.90;;;;;;5052142;28;20103;-54
2022/01/24 14:20:11;;;;;;;7.13;6.40;;;9.20;69.10;;;;;;5062781;28;20047;-55
2022/01/24 14:22:42;;;;;;;8.63;6.45;;;9.30;68.80;;;;;;5067271;28;20305;-55
2022/01/24 14:25:35;;;;;;;8.95;6.05;;;9.30;68.50;;;;;;5055908;28;20074;-56
2022/01/24 14:28:10;;;;;;;7.88;6.63;;;9.40;67.70;;;;;;5065667;28;20454;-53
2022/01/24 14:30:44;;;;;;;9.43;6.45;;;9.40;67.50;;;;;;5069850;28;20048;-54
2022/01/24 14:33:13;;;;;;;7.35;6.53;;;9.40;67.50;;;;;;5063282;28;20044;-51
2022/01/24 14:35:43;;;;;;;9.35;6.88;;;9.40;67.50;;;;;;5057313;28;20459;-55
2022/01/24 14:38:10;;;;;;;7.30;6.60;;;9.30;67.40;;;;;;5049234;28;20049;-54
2022/01/24 14:46:05;;;;;;;7.63;6.40;;;9.20;67.40;;;;;;5044806;28;20115;-54
2022/01/24 14:48:41;;;;;;;6.63;5.90;;;9.10;67.40;;;;;;5037839;28;20052;-54
2022/01/24 14:51:08;;;;;;;7.78;6.30;;;9.10;67.40;;;;;;5042932;28;20118;-53
2022/01/24 14:53:35;;;;;;;8.50;6.50;;;9.10;67.60;;;;;;5051821;28;20045;-55
2022/01/24 14:56:02;;;;;;;7.30;6.43;;;9.10;67.70;;;;;;5045116;28;20040;-54